sensor_id;sensor_type;location;lat;lon;timestamp;P1;durP1;ratioP1;P2;durP2;ratioP2
82412;SDS011;72056;51.980;15.436;2024-01-30T00:01:58;12.02;;;5.55;;
82412;SDS011;72056;51.980;15.436;2024-01-30T00:04:25;12.25;;;5.63;;
82412;SDS011;72056;51.980;15.436;2024-01-30T00:06:52;12.88;;;5.28;;
82412;SDS011;72056;51.980;15.436;2024-01-30T00:09:18;11.88;;;5.00;;
82412;SDS011;72056;51.980;15.436;2024-01-30T00:11:44;11.07;;;5.20;;
82412;SDS011;72056;51.980;15.436;2024-01-30T00:14:11;14.02;;;6.10;;
82412;SDS011;72056;51.980;15.436;2024-01-30T00:16:37;14.10;;;5.65;;
82412;SDS011;72056;51.980;15.436;2024-01-30T00:19:04;11.57;;;5.35;;
82412;SDS011;72056;51.980;15.436;2024-01-30T00:21:31;14.35;;;5.85;;
82412;SDS011;72056;51.980;15.436;2024-01-30T00:23:58;12.98;;;5.28;;
82412;SDS011;72056;51.980;15.436;2024-01-30T00:26:25;11.73;;;5.13;;
82412;SDS011;72056;51.980;15.436;2024-01-30T00:28:53;11.38;;;5.57;;
82412;SDS011;72056;51.980;15.436;2024-01-30T00:31:19;14.35;;;5.82;;
82412;SDS011;72056;51.980;15.436;2024-01-30T00:33:46;11.07;;;5.15;;
82412;SDS011;72056;51.980;15.436;2024-01-30T00:36:13;12.32;;;5.30;;
82412;SDS011;72056;51.980;15.436;2024-01-30T00:38:39;12.07;;;5.10;;
82412;SDS011;72056;51.980;15.436;2024-01-30T00:41:08;13.02;;;5.00;;
82412;SDS011;72056;51.980;15.436;2024-01-30T00:43:35;11.48;;;5.20;;
82412;SDS011;72056;51.980;15.436;2024-01-30T00:46:02;10.50;;;5.30;;
82412;SDS011;72056;51.980;15.436;2024-01-30T00:48:29;12.10;;;5.10;;
82412;SDS011;72056;51.980;15.436;2024-01-30T00:50:56;10.13;;;4.53;;
82412;SDS011;72056;51.980;15.436;2024-01-30T00:53:23;10.02;;;4.78;;
82412;SDS011;72056;51.980;15.436;2024-01-30T00:55:50;14.15;;;5.30;;
82412;SDS011;72056;51.980;15.436;2024-01-30T00:58:17;10.57;;;5.30;;
82412;SDS011;72056;51.980;15.436;2024-01-30T01:00:44;12.23;;;5.22;;
82412;SDS011;72056;51.980;15.436;2024-01-30T01:03:11;11.70;;;5.03;;
82412;SDS011;72056;51.980;15.436;2024-01-30T01:05:40;8.98;;;5.00;;
82412;SDS011;72056;51.980;15.436;2024-01-30T01:08:06;11.27;;;5.10;;
82412;SDS011;72056;51.980;15.436;2024-01-30T01:10:32;11.35;;;5.00;;
82412;SDS011;72056;51.980;15.436;2024-01-30T01:13:00;10.82;;;4.65;;
82412;SDS011;72056;51.980;15.436;2024-01-30T01:15:26;12.15;;;5.63;;
82412;SDS011;72056;51.980;15.436;2024-01-30T01:17:53;11.13;;;4.50;;
82412;SDS011;72056;51.980;15.436;2024-01-30T01:20:20;11.48;;;4.70;;
82412;SDS011;72056;51.980;15.436;2024-01-30T01:22:47;11.25;;;5.25;;
82412;SDS011;72056;51.980;15.436;2024-01-30T01:25:14;13.57;;;4.82;;
82412;SDS011;72056;51.980;15.436;2024-01-30T01:27:41;14.32;;;5.43;;
82412;SDS011;72056;51.980;15.436;2024-01-30T01:30:10;12.05;;;5.10;;
82412;SDS011;72056;51.980;15.436;2024-01-30T01:32:39;11.27;;;5.13;;
82412;SDS011;72056;51.980;15.436;2024-01-30T01:35:14;13.52;;;5.50;;
82412;SDS011;72056;51.980;15.436;2024-01-30T01:37:41;11.90;;;5.13;;
82412;SDS011;72056;51.980;15.436;2024-01-30T01:40:07;10.95;;;4.93;;
82412;SDS011;72056;51.980;15.436;2024-01-30T01:42:36;12.23;;;5.15;;
82412;SDS011;72056;51.980;15.436;2024-01-30T01:45:02;10.73;;;4.93;;
82412;SDS011;72056;51.980;15.436;2024-01-30T01:47:32;11.25;;;5.00;;
82412;SDS011;72056;51.980;15.436;2024-01-30T01:49:58;10.48;;;4.80;;
82412;SDS011;72056;51.980;15.436;2024-01-30T01:52:25;10.38;;;4.35;;
82412;SDS011;72056;51.980;15.436;2024-01-30T01:54:52;11.55;;;4.93;;
82412;SDS011;72056;51.980;15.436;2024-01-30T01:57:19;10.40;;;5.30;;
82412;SDS011;72056;51.980;15.436;2024-01-30T01:59:45;11.80;;;5.35;;
82412;SDS011;72056;51.980;15.436;2024-01-30T02:02:13;11.55;;;5.35;;
82412;SDS011;72056;51.980;15.436;2024-01-30T02:04:43;13.52;;;5.07;;
82412;SDS011;72056;51.980;15.436;2024-01-30T02:07:09;13.85;;;6.28;;
82412;SDS011;72056;51.980;15.436;2024-01-30T02:09:36;11.60;;;5.55;;
82412;SDS011;72056;51.980;15.436;2024-01-30T02:12:03;11.07;;;5.25;;
82412;SDS011;72056;51.980;15.436;2024-01-30T02:14:32;12.35;;;5.55;;
82412;SDS011;72056;51.980;15.436;2024-01-30T02:16:59;10.52;;;5.60;;
82412;SDS011;72056;51.980;15.436;2024-01-30T02:19:26;12.60;;;5.55;;
82412;SDS011;72056;51.980;15.436;2024-01-30T02:21:55;11.88;;;5.60;;
82412;SDS011;72056;51.980;15.436;2024-01-30T02:24:22;10.85;;;5.38;;
82412;SDS011;72056;51.980;15.436;2024-01-30T02:26:50;12.10;;;5.70;;
82412;SDS011;72056;51.980;15.436;2024-01-30T02:29:18;13.10;;;4.97;;
82412;SDS011;72056;51.980;15.436;2024-01-30T02:31:44;16.30;;;6.35;;
82412;SDS011;72056;51.980;15.436;2024-01-30T02:34:11;13.25;;;5.53;;
82412;SDS011;72056;51.980;15.436;2024-01-30T02:36:43;15.05;;;6.10;;
82412;SDS011;72056;51.980;15.436;2024-01-30T02:39:10;16.02;;;6.53;;
82412;SDS011;72056;51.980;15.436;2024-01-30T02:41:36;17.40;;;6.25;;
82412;SDS011;72056;51.980;15.436;2024-01-30T02:44:04;14.60;;;6.60;;
82412;SDS011;72056;51.980;15.436;2024-01-30T02:46:31;13.45;;;6.00;;
82412;SDS011;72056;51.980;15.436;2024-01-30T02:48:56;14.95;;;6.32;;
82412;SDS011;72056;51.980;15.436;2024-01-30T02:51:27;12.73;;;5.70;;
82412;SDS011;72056;51.980;15.436;2024-01-30T02:53:54;14.88;;;6.70;;
82412;SDS011;72056;51.980;15.436;2024-01-30T02:56:21;14.05;;;6.93;;
82412;SDS011;72056;51.980;15.436;2024-01-30T02:58:48;14.98;;;6.72;;
82412;SDS011;72056;51.980;15.436;2024-01-30T03:01:14;16.70;;;6.63;;
82412;SDS011;72056;51.980;15.436;2024-01-30T03:03:41;15.93;;;6.88;;
82412;SDS011;72056;51.980;15.436;2024-01-30T03:06:09;14.35;;;6.70;;
82412;SDS011;72056;51.980;15.436;2024-01-30T03:08:36;13.90;;;7.28;;
82412;SDS011;72056;51.980;15.436;2024-01-30T03:11:04;17.60;;;7.63;;
82412;SDS011;72056;51.980;15.436;2024-01-30T03:13:32;16.73;;;6.88;;
82412;SDS011;72056;51.980;15.436;2024-01-30T03:15:59;17.40;;;7.75;;
82412;SDS011;72056;51.980;15.436;2024-01-30T03:18:25;18.85;;;7.93;;
82412;SDS011;72056;51.980;15.436;2024-01-30T03:20:52;15.82;;;7.03;;
82412;SDS011;72056;51.980;15.436;2024-01-30T03:23:18;17.52;;;7.93;;
82412;SDS011;72056;51.980;15.436;2024-01-30T03:25:47;18.60;;;7.18;;
82412;SDS011;72056;51.980;15.436;2024-01-30T03:28:13;14.80;;;7.13;;
82412;SDS011;72056;51.980;15.436;2024-01-30T03:30:40;14.43;;;6.97;;
82412;SDS011;72056;51.980;15.436;2024-01-30T03:33:07;15.02;;;6.60;;
82412;SDS011;72056;51.980;15.436;2024-01-30T03:35:34;15.13;;;6.95;;
82412;SDS011;72056;51.980;15.436;2024-01-30T03:38:01;15.43;;;6.75;;
82412;SDS011;72056;51.980;15.436;2024-01-30T03:40:29;15.30;;;6.88;;
82412;SDS011;72056;51.980;15.436;2024-01-30T03:42:56;12.57;;;6.28;;
82412;SDS011;72056;51.980;15.436;2024-01-30T03:45:23;12.85;;;6.25;;
82412;SDS011;72056;51.980;15.436;2024-01-30T03:47:50;15.77;;;6.22;;
82412;SDS011;72056;51.980;15.436;2024-01-30T03:50:18;14.00;;;6.22;;
82412;SDS011;72056;51.980;15.436;2024-01-30T03:52:45;12.25;;;5.47;;
82412;SDS011;72056;51.980;15.436;2024-01-30T03:55:13;15.18;;;6.22;;
82412;SDS011;72056;51.980;15.436;2024-01-30T03:57:40;16.83;;;6.15;;
82412;SDS011;72056;51.980;15.436;2024-01-30T04:00:07;13.80;;;6.32;;
82412;SDS011;72056;51.980;15.436;2024-01-30T04:02:36;13.52;;;6.05;;
82412;SDS011;72056;51.980;15.436;2024-01-30T04:05:04;16.20;;;5.75;;
82412;SDS011;72056;51.980;15.436;2024-01-30T04:07:32;14.27;;;6.28;;
82412;SDS011;72056;51.980;15.436;2024-01-30T04:09:59;15.43;;;6.30;;
82412;SDS011;72056;51.980;15.436;2024-01-30T04:12:26;12.55;;;6.45;;
82412;SDS011;72056;51.980;15.436;2024-01-30T04:14:53;14.75;;;6.30;;
82412;SDS011;72056;51.980;15.436;2024-01-30T04:17:20;12.30;;;5.80;;
82412;SDS011;72056;51.980;15.436;2024-01-30T04:19:47;12.48;;;5.90;;
82412;SDS011;72056;51.980;15.436;2024-01-30T04:22:13;13.23;;;5.75;;
82412;SDS011;72056;51.980;15.436;2024-01-30T04:24:40;15.20;;;6.45;;
82412;SDS011;72056;51.980;15.436;2024-01-30T04:27:07;17.80;;;6.22;;
82412;SDS011;72056;51.980;15.436;2024-01-30T04:29:34;11.73;;;5.38;;
82412;SDS011;72056;51.980;15.436;2024-01-30T04:32:00;13.07;;;5.65;;
82412;SDS011;72056;51.980;15.436;2024-01-30T04:34:28;14.90;;;5.70;;
82412;SDS011;72056;51.980;15.436;2024-01-30T04:36:54;15.55;;;6.25;;
82412;SDS011;72056;51.980;15.436;2024-01-30T04:39:21;11.45;;;5.25;;
82412;SDS011;72056;51.980;15.436;2024-01-30T04:41:48;14.30;;;5.65;;
82412;SDS011;72056;51.980;15.436;2024-01-30T04:44:15;12.15;;;5.45;;
82412;SDS011;72056;51.980;15.436;2024-01-30T04:46:41;14.00;;;5.80;;
82412;SDS011;72056;51.980;15.436;2024-01-30T04:49:08;13.45;;;5.90;;
82412;SDS011;72056;51.980;15.436;2024-01-30T04:51:36;13.45;;;5.43;;
82412;SDS011;72056;51.980;15.436;2024-01-30T04:54:02;12.90;;;5.32;;
82412;SDS011;72056;51.980;15.436;2024-01-30T04:56:29;12.27;;;5.80;;
82412;SDS011;72056;51.980;15.436;2024-01-30T04:58:57;16.05;;;5.40;;
82412;SDS011;72056;51.980;15.436;2024-01-30T05:01:24;11.27;;;5.35;;
82412;SDS011;72056;51.980;15.436;2024-01-30T05:03:52;12.85;;;5.80;;
82412;SDS011;72056;51.980;15.436;2024-01-30T05:06:28;13.27;;;5.60;;
82412;SDS011;72056;51.980;15.436;2024-01-30T05:09:11;12.73;;;5.45;;
82412;SDS011;72056;51.980;15.436;2024-01-30T05:11:38;13.15;;;5.57;;
82412;SDS011;72056;51.980;15.436;2024-01-30T05:14:05;12.02;;;5.60;;
82412;SDS011;72056;51.980;15.436;2024-01-30T05:16:32;12.43;;;5.13;;
82412;SDS011;72056;51.980;15.436;2024-01-30T05:19:00;12.88;;;5.93;;
82412;SDS011;72056;51.980;15.436;2024-01-30T05:21:26;12.18;;;5.70;;
82412;SDS011;72056;51.980;15.436;2024-01-30T05:23:54;12.73;;;5.63;;
82412;SDS011;72056;51.980;15.436;2024-01-30T05:26:21;11.90;;;6.10;;
82412;SDS011;72056;51.980;15.436;2024-01-30T05:28:48;12.20;;;5.78;;
82412;SDS011;72056;51.980;15.436;2024-01-30T05:31:15;12.38;;;5.28;;
82412;SDS011;72056;51.980;15.436;2024-01-30T05:33:42;14.00;;;6.20;;
82412;SDS011;72056;51.980;15.436;2024-01-30T05:36:11;14.27;;;5.18;;
82412;SDS011;72056;51.980;15.436;2024-01-30T05:38:39;14.27;;;6.18;;
82412;SDS011;72056;51.980;15.436;2024-01-30T05:41:06;14.75;;;6.15;;
82412;SDS011;72056;51.980;15.436;2024-01-30T05:43:33;14.68;;;5.95;;
82412;SDS011;72056;51.980;15.436;2024-01-30T05:45:59;14.75;;;5.72;;
82412;SDS011;72056;51.980;15.436;2024-01-30T05:48:26;14.93;;;6.07;;
82412;SDS011;72056;51.980;15.436;2024-01-30T05:50:53;14.32;;;6.07;;
82412;SDS011;72056;51.980;15.436;2024-01-30T05:53:20;13.57;;;6.55;;
82412;SDS011;72056;51.980;15.436;2024-01-30T05:58:17;14.32;;;6.65;;
82412;SDS011;72056;51.980;15.436;2024-01-30T06:00:44;17.20;;;6.72;;
82412;SDS011;72056;51.980;15.436;2024-01-30T06:03:11;12.50;;;5.40;;
82412;SDS011;72056;51.980;15.436;2024-01-30T06:05:39;14.43;;;5.88;;
82412;SDS011;72056;51.980;15.436;2024-01-30T06:08:06;14.02;;;5.97;;
82412;SDS011;72056;51.980;15.436;2024-01-30T06:10:33;14.75;;;5.97;;
82412;SDS011;72056;51.980;15.436;2024-01-30T06:13:01;12.18;;;5.78;;
82412;SDS011;72056;51.980;15.436;2024-01-30T06:15:27;12.45;;;5.22;;
82412;SDS011;72056;51.980;15.436;2024-01-30T06:17:55;12.10;;;5.82;;
82412;SDS011;72056;51.980;15.436;2024-01-30T06:20:21;12.02;;;5.57;;
82412;SDS011;72056;51.980;15.436;2024-01-30T06:22:49;12.60;;;5.60;;
82412;SDS011;72056;51.980;15.436;2024-01-30T06:25:15;11.30;;;5.40;;
82412;SDS011;72056;51.980;15.436;2024-01-30T06:27:42;13.10;;;5.40;;
82412;SDS011;72056;51.980;15.436;2024-01-30T06:30:09;10.52;;;5.38;;
82412;SDS011;72056;51.980;15.436;2024-01-30T06:32:37;12.73;;;5.35;;
82412;SDS011;72056;51.980;15.436;2024-01-30T06:35:05;15.25;;;5.80;;
82412;SDS011;72056;51.980;15.436;2024-01-30T06:37:32;11.48;;;4.97;;
82412;SDS011;72056;51.980;15.436;2024-01-30T06:39:59;11.32;;;5.60;;
82412;SDS011;72056;51.980;15.436;2024-01-30T06:42:25;13.13;;;5.22;;
82412;SDS011;72056;51.980;15.436;2024-01-30T06:44:51;11.77;;;5.15;;
82412;SDS011;72056;51.980;15.436;2024-01-30T06:47:18;16.70;;;6.57;;
82412;SDS011;72056;51.980;15.436;2024-01-30T06:49:44;13.48;;;5.28;;
82412;SDS011;72056;51.980;15.436;2024-01-30T06:52:11;13.90;;;6.05;;
82412;SDS011;72056;51.980;15.436;2024-01-30T06:54:37;13.07;;;5.47;;
82412;SDS011;72056;51.980;15.436;2024-01-30T06:57:05;12.75;;;6.00;;
82412;SDS011;72056;51.980;15.436;2024-01-30T06:59:37;11.65;;;5.65;;
82412;SDS011;72056;51.980;15.436;2024-01-30T07:02:09;13.18;;;5.63;;
82412;SDS011;72056;51.980;15.436;2024-01-30T07:04:36;13.40;;;5.95;;
82412;SDS011;72056;51.980;15.436;2024-01-30T07:07:05;12.27;;;5.13;;
82412;SDS011;72056;51.980;15.436;2024-01-30T07:09:38;13.93;;;5.85;;
82412;SDS011;72056;51.980;15.436;2024-01-30T07:12:05;13.23;;;5.80;;
82412;SDS011;72056;51.980;15.436;2024-01-30T07:14:32;12.07;;;5.90;;
82412;SDS011;72056;51.980;15.436;2024-01-30T07:16:59;12.90;;;5.50;;
82412;SDS011;72056;51.980;15.436;2024-01-30T07:19:25;13.00;;;6.10;;
82412;SDS011;72056;51.980;15.436;2024-01-30T07:21:52;11.77;;;5.68;;
82412;SDS011;72056;51.980;15.436;2024-01-30T07:24:19;13.10;;;6.43;;
82412;SDS011;72056;51.980;15.436;2024-01-30T07:26:45;10.93;;;5.63;;
82412;SDS011;72056;51.980;15.436;2024-01-30T07:29:11;14.90;;;6.32;;
82412;SDS011;72056;51.980;15.436;2024-01-30T07:31:38;12.00;;;5.70;;
82412;SDS011;72056;51.980;15.436;2024-01-30T07:34:05;12.43;;;6.25;;
82412;SDS011;72056;51.980;15.436;2024-01-30T07:36:33;13.70;;;5.72;;
82412;SDS011;72056;51.980;15.436;2024-01-30T07:39:01;11.00;;;5.43;;
82412;SDS011;72056;51.980;15.436;2024-01-30T07:41:27;11.55;;;5.45;;
82412;SDS011;72056;51.980;15.436;2024-01-30T07:43:55;14.77;;;5.95;;
82412;SDS011;72056;51.980;15.436;2024-01-30T07:46:22;12.57;;;5.30;;
82412;SDS011;72056;51.980;15.436;2024-01-30T07:48:49;12.68;;;6.25;;
82412;SDS011;72056;51.980;15.436;2024-01-30T07:51:16;11.93;;;5.90;;
82412;SDS011;72056;51.980;15.436;2024-01-30T07:53:43;11.73;;;5.20;;
82412;SDS011;72056;51.980;15.436;2024-01-30T07:56:10;10.30;;;5.55;;
82412;SDS011;72056;51.980;15.436;2024-01-30T07:58:37;10.93;;;5.28;;
82412;SDS011;72056;51.980;15.436;2024-01-30T08:01:04;13.60;;;5.97;;
82412;SDS011;72056;51.980;15.436;2024-01-30T08:03:30;14.50;;;5.85;;
82412;SDS011;72056;51.980;15.436;2024-01-30T08:05:58;12.98;;;5.70;;
82412;SDS011;72056;51.980;15.436;2024-01-30T08:08:24;15.20;;;5.95;;
82412;SDS011;72056;51.980;15.436;2024-01-30T08:10:52;12.80;;;5.72;;
82412;SDS011;72056;51.980;15.436;2024-01-30T08:13:18;12.15;;;5.85;;
82412;SDS011;72056;51.980;15.436;2024-01-30T08:15:46;12.68;;;5.68;;
82412;SDS011;72056;51.980;15.436;2024-01-30T08:18:14;11.27;;;5.07;;
82412;SDS011;72056;51.980;15.436;2024-01-30T08:20:41;12.43;;;5.63;;
82412;SDS011;72056;51.980;15.436;2024-01-30T08:23:08;12.15;;;6.18;;
82412;SDS011;72056;51.980;15.436;2024-01-30T08:25:36;12.07;;;5.32;;
82412;SDS011;72056;51.980;15.436;2024-01-30T08:28:03;11.60;;;5.93;;
82412;SDS011;72056;51.980;15.436;2024-01-30T08:30:30;10.65;;;5.22;;
82412;SDS011;72056;51.980;15.436;2024-01-30T08:32:57;10.60;;;4.88;;
82412;SDS011;72056;51.980;15.436;2024-01-30T08:35:24;10.15;;;4.47;;
82412;SDS011;72056;51.980;15.436;2024-01-30T08:37:51;12.48;;;5.70;;
82412;SDS011;72056;51.980;15.436;2024-01-30T08:40:20;11.88;;;5.13;;
82412;SDS011;72056;51.980;15.436;2024-01-30T08:42:47;11.48;;;5.20;;
82412;SDS011;72056;51.980;15.436;2024-01-30T08:45:14;11.73;;;5.22;;
82412;SDS011;72056;51.980;15.436;2024-01-30T08:47:40;13.73;;;5.82;;
82412;SDS011;72056;51.980;15.436;2024-01-30T08:50:06;16.95;;;6.10;;
82412;SDS011;72056;51.980;15.436;2024-01-30T08:52:34;12.10;;;6.03;;
82412;SDS011;72056;51.980;15.436;2024-01-30T08:55:01;11.73;;;5.45;;
82412;SDS011;72056;51.980;15.436;2024-01-30T08:57:30;11.98;;;5.07;;
82412;SDS011;72056;51.980;15.436;2024-01-30T08:59:57;13.88;;;6.03;;
82412;SDS011;72056;51.980;15.436;2024-01-30T09:02:24;12.88;;;5.72;;
82412;SDS011;72056;51.980;15.436;2024-01-30T09:04:51;11.82;;;5.60;;
82412;SDS011;72056;51.980;15.436;2024-01-30T09:07:17;15.52;;;6.32;;
82412;SDS011;72056;51.980;15.436;2024-01-30T09:09:44;11.43;;;5.35;;
82412;SDS011;72056;51.980;15.436;2024-01-30T09:12:11;10.80;;;5.15;;
82412;SDS011;72056;51.980;15.436;2024-01-30T09:14:38;11.55;;;5.57;;
82412;SDS011;72056;51.980;15.436;2024-01-30T09:17:08;11.88;;;5.88;;
82412;SDS011;72056;51.980;15.436;2024-01-30T09:19:35;12.95;;;5.28;;
82412;SDS011;72056;51.980;15.436;2024-01-30T09:22:02;10.98;;;5.65;;
82412;SDS011;72056;51.980;15.436;2024-01-30T09:24:29;11.25;;;4.85;;
82412;SDS011;72056;51.980;15.436;2024-01-30T09:26:55;12.48;;;5.63;;
82412;SDS011;72056;51.980;15.436;2024-01-30T09:29:22;10.27;;;5.43;;
82412;SDS011;72056;51.980;15.436;2024-01-30T09:31:48;9.23;;;4.55;;
82412;SDS011;72056;51.980;15.436;2024-01-30T09:34:15;11.25;;;5.55;;
82412;SDS011;72056;51.980;15.436;2024-01-30T09:36:43;10.73;;;5.15;;
82412;SDS011;72056;51.980;15.436;2024-01-30T09:39:10;10.38;;;4.82;;
82412;SDS011;72056;51.980;15.436;2024-01-30T09:41:40;12.85;;;5.20;;
82412;SDS011;72056;51.980;15.436;2024-01-30T09:44:16;11.25;;;5.25;;
82412;SDS011;72056;51.980;15.436;2024-01-30T09:46:42;9.52;;;4.88;;
82412;SDS011;72056;51.980;15.436;2024-01-30T09:49:14;12.40;;;4.80;;
82412;SDS011;72056;51.980;15.436;2024-01-30T09:51:40;13.35;;;5.55;;
82412;SDS011;72056;51.980;15.436;2024-01-30T09:54:07;12.88;;;5.80;;
82412;SDS011;72056;51.980;15.436;2024-01-30T09:56:34;11.77;;;5.57;;
82412;SDS011;72056;51.980;15.436;2024-01-30T09:59:01;12.63;;;6.03;;
82412;SDS011;72056;51.980;15.436;2024-01-30T10:01:28;12.20;;;5.55;;
82412;SDS011;72056;51.980;15.436;2024-01-30T10:03:55;11.18;;;5.50;;
82412;SDS011;72056;51.980;15.436;2024-01-30T10:06:22;9.98;;;5.20;;
82412;SDS011;72056;51.980;15.436;2024-01-30T10:08:50;11.27;;;5.40;;
82412;SDS011;72056;51.980;15.436;2024-01-30T10:11:16;12.57;;;5.38;;
82412;SDS011;72056;51.980;15.436;2024-01-30T10:13:43;11.70;;;5.68;;
82412;SDS011;72056;51.980;15.436;2024-01-30T10:16:14;11.82;;;5.57;;
82412;SDS011;72056;51.980;15.436;2024-01-30T10:18:42;10.07;;;5.30;;
82412;SDS011;72056;51.980;15.436;2024-01-30T10:21:09;9.90;;;4.80;;
82412;SDS011;72056;51.980;15.436;2024-01-30T10:23:36;11.52;;;5.38;;
82412;SDS011;72056;51.980;15.436;2024-01-30T10:26:07;10.80;;;5.53;;
82412;SDS011;72056;51.980;15.436;2024-01-30T10:28:33;11.10;;;5.22;;
82412;SDS011;72056;51.980;15.436;2024-01-30T10:30:59;10.40;;;5.03;;
82412;SDS011;72056;51.980;15.436;2024-01-30T10:33:26;10.48;;;5.03;;
82412;SDS011;72056;51.980;15.436;2024-01-30T10:35:57;12.18;;;5.88;;
82412;SDS011;72056;51.980;15.436;2024-01-30T10:38:31;11.85;;;5.20;;
82412;SDS011;72056;51.980;15.436;2024-01-30T10:41:15;10.75;;;5.15;;
82412;SDS011;72056;51.980;15.436;2024-01-30T10:43:50;11.05;;;5.18;;
82412;SDS011;72056;51.980;15.436;2024-01-30T10:46:29;9.40;;;5.10;;
82412;SDS011;72056;51.980;15.436;2024-01-30T10:48:57;13.07;;;5.85;;
82412;SDS011;72056;51.980;15.436;2024-01-30T10:51:26;11.57;;;5.28;;
82412;SDS011;72056;51.980;15.436;2024-01-30T10:53:54;12.43;;;5.30;;
82412;SDS011;72056;51.980;15.436;2024-01-30T10:56:22;12.30;;;5.20;;
82412;SDS011;72056;51.980;15.436;2024-01-30T10:58:50;11.70;;;5.40;;
82412;SDS011;72056;51.980;15.436;2024-01-30T11:01:19;11.52;;;5.00;;
82412;SDS011;72056;51.980;15.436;2024-01-30T11:03:50;11.50;;;5.38;;
82412;SDS011;72056;51.980;15.436;2024-01-30T11:06:17;9.10;;;4.72;;
82412;SDS011;72056;51.980;15.436;2024-01-30T11:08:45;11.05;;;5.53;;
82412;SDS011;72056;51.980;15.436;2024-01-30T11:11:12;10.65;;;5.53;;
82412;SDS011;72056;51.980;15.436;2024-01-30T11:13:38;9.98;;;4.47;;
82412;SDS011;72056;51.980;15.436;2024-01-30T11:16:06;9.40;;;4.82;;
82412;SDS011;72056;51.980;15.436;2024-01-30T11:18:37;11.65;;;5.53;;
82412;SDS011;72056;51.980;15.436;2024-01-30T11:21:04;10.35;;;5.15;;
82412;SDS011;72056;51.980;15.436;2024-01-30T11:23:30;8.98;;;4.72;;
82412;SDS011;72056;51.980;15.436;2024-01-30T11:25:59;10.95;;;5.10;;
82412;SDS011;72056;51.980;15.436;2024-01-30T11:28:32;11.30;;;5.25;;
82412;SDS011;72056;51.980;15.436;2024-01-30T11:31:19;9.18;;;4.93;;
82412;SDS011;72056;51.980;15.436;2024-01-30T11:33:46;10.68;;;4.85;;
82412;SDS011;72056;51.980;15.436;2024-01-30T11:36:18;9.18;;;4.72;;
82412;SDS011;72056;51.980;15.436;2024-01-30T11:38:50;9.45;;;4.80;;
82412;SDS011;72056;51.980;15.436;2024-01-30T11:41:17;10.07;;;5.40;;
82412;SDS011;72056;51.980;15.436;2024-01-30T11:43:50;10.30;;;5.32;;
82412;SDS011;72056;51.980;15.436;2024-01-30T11:46:18;9.15;;;4.80;;
82412;SDS011;72056;51.980;15.436;2024-01-30T11:48:50;11.02;;;4.65;;
82412;SDS011;72056;51.980;15.436;2024-01-30T11:51:17;10.35;;;4.50;;
82412;SDS011;72056;51.980;15.436;2024-01-30T11:53:49;8.50;;;4.63;;
82412;SDS011;72056;51.980;15.436;2024-01-30T11:56:16;12.07;;;5.45;;
82412;SDS011;72056;51.980;15.436;2024-01-30T11:58:47;8.30;;;4.47;;
82412;SDS011;72056;51.980;15.436;2024-01-30T12:01:14;11.15;;;5.47;;
82412;SDS011;72056;51.980;15.436;2024-01-30T12:03:42;9.20;;;4.68;;
82412;SDS011;72056;51.980;15.436;2024-01-30T12:06:15;9.93;;;4.97;;
82412;SDS011;72056;51.980;15.436;2024-01-30T12:08:42;8.95;;;5.05;;
82412;SDS011;72056;51.980;15.436;2024-01-30T12:11:08;11.88;;;5.57;;
82412;SDS011;72056;51.980;15.436;2024-01-30T12:13:34;10.90;;;4.97;;
82412;SDS011;72056;51.980;15.436;2024-01-30T12:16:02;11.00;;;5.20;;
82412;SDS011;72056;51.980;15.436;2024-01-30T12:18:29;8.68;;;4.57;;
82412;SDS011;72056;51.980;15.436;2024-01-30T12:20:59;9.73;;;4.90;;
82412;SDS011;72056;51.980;15.436;2024-01-30T12:23:26;10.68;;;4.95;;
82412;SDS011;72056;51.980;15.436;2024-01-30T12:25:53;9.48;;;5.30;;
82412;SDS011;72056;51.980;15.436;2024-01-30T12:28:20;9.05;;;4.72;;
82412;SDS011;72056;51.980;15.436;2024-01-30T12:30:46;10.70;;;4.70;;
82412;SDS011;72056;51.980;15.436;2024-01-30T12:33:16;8.63;;;4.60;;
82412;SDS011;72056;51.980;15.436;2024-01-30T12:35:47;9.75;;;4.32;;
82412;SDS011;72056;51.980;15.436;2024-01-30T12:38:14;9.80;;;4.88;;
82412;SDS011;72056;51.980;15.436;2024-01-30T12:40:40;10.05;;;5.40;;
82412;SDS011;72056;51.980;15.436;2024-01-30T12:43:15;10.35;;;4.72;;
82412;SDS011;72056;51.980;15.436;2024-01-30T12:45:42;9.93;;;4.90;;
82412;SDS011;72056;51.980;15.436;2024-01-30T12:48:10;9.45;;;5.13;;
82412;SDS011;72056;51.980;15.436;2024-01-30T12:50:36;11.52;;;5.05;;
82412;SDS011;72056;51.980;15.436;2024-01-30T12:53:03;9.35;;;4.70;;
82412;SDS011;72056;51.980;15.436;2024-01-30T12:55:31;9.85;;;5.00;;
82412;SDS011;72056;51.980;15.436;2024-01-30T12:57:58;11.02;;;4.95;;
82412;SDS011;72056;51.980;15.436;2024-01-30T13:00:25;10.90;;;4.82;;
82412;SDS011;72056;51.980;15.436;2024-01-30T13:02:52;11.07;;;4.85;;
82412;SDS011;72056;51.980;15.436;2024-01-30T13:05:18;9.07;;;4.40;;
82412;SDS011;72056;51.980;15.436;2024-01-30T13:07:45;11.98;;;4.60;;
82412;SDS011;72056;51.980;15.436;2024-01-30T13:10:12;9.68;;;4.45;;
82412;SDS011;72056;51.980;15.436;2024-01-30T13:12:39;9.07;;;4.55;;
82412;SDS011;72056;51.980;15.436;2024-01-30T13:15:06;10.07;;;4.53;;
82412;SDS011;72056;51.980;15.436;2024-01-30T13:17:33;8.68;;;4.30;;
82412;SDS011;72056;51.980;15.436;2024-01-30T13:20:00;9.73;;;4.28;;
82412;SDS011;72056;51.980;15.436;2024-01-30T13:22:27;9.52;;;4.25;;
82412;SDS011;72056;51.980;15.436;2024-01-30T13:24:54;9.80;;;4.53;;
82412;SDS011;72056;51.980;15.436;2024-01-30T13:27:20;11.18;;;4.47;;
82412;SDS011;72056;51.980;15.436;2024-01-30T13:29:47;9.95;;;4.25;;
82412;SDS011;72056;51.980;15.436;2024-01-30T13:32:13;10.50;;;5.30;;
82412;SDS011;72056;51.980;15.436;2024-01-30T13:34:42;10.98;;;4.85;;
82412;SDS011;72056;51.980;15.436;2024-01-30T13:37:10;10.45;;;5.13;;
82412;SDS011;72056;51.980;15.436;2024-01-30T13:39:38;9.55;;;4.57;;
82412;SDS011;72056;51.980;15.436;2024-01-30T13:42:04;8.07;;;3.92;;
82412;SDS011;72056;51.980;15.436;2024-01-30T13:44:35;8.20;;;4.20;;
82412;SDS011;72056;51.980;15.436;2024-01-30T13:47:01;9.18;;;4.63;;
82412;SDS011;72056;51.980;15.436;2024-01-30T13:49:30;9.57;;;4.43;;
82412;SDS011;72056;51.980;15.436;2024-01-30T13:51:57;8.88;;;4.03;;
82412;SDS011;72056;51.980;15.436;2024-01-30T13:54:24;8.90;;;4.50;;
82412;SDS011;72056;51.980;15.436;2024-01-30T13:56:51;8.65;;;4.35;;
82412;SDS011;72056;51.980;15.436;2024-01-30T13:59:18;7.95;;;3.80;;
82412;SDS011;72056;51.980;15.436;2024-01-30T14:01:49;9.27;;;4.10;;
82412;SDS011;72056;51.980;15.436;2024-01-30T14:04:16;8.73;;;4.25;;
82412;SDS011;72056;51.980;15.436;2024-01-30T14:06:42;10.23;;;4.47;;
82412;SDS011;72056;51.980;15.436;2024-01-30T14:09:10;9.73;;;4.80;;
82412;SDS011;72056;51.980;15.436;2024-01-30T14:11:36;8.45;;;4.80;;
82412;SDS011;72056;51.980;15.436;2024-01-30T14:14:04;7.57;;;4.38;;
82412;SDS011;72056;51.980;15.436;2024-01-30T14:16:32;10.15;;;4.70;;
82412;SDS011;72056;51.980;15.436;2024-01-30T14:18:59;9.05;;;4.90;;
82412;SDS011;72056;51.980;15.436;2024-01-30T14:21:27;9.45;;;4.32;;
82412;SDS011;72056;51.980;15.436;2024-01-30T14:23:54;9.52;;;4.95;;
82412;SDS011;72056;51.980;15.436;2024-01-30T14:26:20;9.57;;;4.40;;
82412;SDS011;72056;51.980;15.436;2024-01-30T14:28:47;9.35;;;4.38;;